createdAt,value
2023-03-07T00:02:05.397Z,60.25
2023-03-07T00:05:14.949Z,60.30
2023-03-07T00:08:21.197Z,60.29
2023-03-07T00:11:27.857Z,60.56
2023-03-07T00:14:34.334Z,60.42
2023-03-07T00:17:40.829Z,60.56
2023-03-07T00:20:47.135Z,60.55
2023-03-07T00:23:53.354Z,60.57
2023-03-07T00:26:59.572Z,60.65
2023-03-07T00:30:07.208Z,60.90
2023-03-07T00:33:13.458Z,61.00
2023-03-07T00:36:21.202Z,61.05
2023-03-07T00:39:27.528Z,61.42
2023-03-07T00:42:32.122Z,61.63
2023-03-07T00:45:38.465Z,61.92
2023-03-07T00:48:44.944Z,61.95
2023-03-07T00:51:51.308Z,62.25
2023-03-07T00:54:55.884Z,62.25
2023-03-07T00:58:02.172Z,62.29
2023-03-07T01:01:07.659Z,62.28
2023-03-07T01:04:14.134Z,62.31
2023-03-07T01:07:20.321Z,62.15
2023-03-07T01:10:29.330Z,61.67
2023-03-07T01:13:37.131Z,62.24
2023-03-07T01:16:43.338Z,62.69
2023-03-07T01:19:49.597Z,62.49
2023-03-07T01:22:55.850Z,62.25
2023-03-07T01:26:00.349Z,62.06
2023-03-07T01:29:09.983Z,62.61
2023-03-07T01:32:16.336Z,63.03
2023-03-07T01:35:20.895Z,63.08
2023-03-07T01:38:28.368Z,63.23
2023-03-07T01:41:35.241Z,62.44
2023-03-07T01:45:06.333Z,62.33
2023-03-07T01:48:12.607Z,62.29
2023-03-07T01:51:17.852Z,62.48
2023-03-07T01:54:25.941Z,62.57
2023-03-07T01:57:37.058Z,62.45
2023-03-07T02:00:45.632Z,62.25
2023-03-07T02:03:55.322Z,62.11
2023-03-07T02:07:03.912Z,62.21
2023-03-07T02:10:12.107Z,62.29
2023-03-07T02:13:18.807Z,62.21
2023-03-07T02:16:25.075Z,62.16
2023-03-07T02:19:36.049Z,62.90
2023-03-07T02:22:43.167Z,63.25
2023-03-07T02:25:56.205Z,63.09
2023-03-07T02:29:03.971Z,63.01
2023-03-07T02:32:11.251Z,62.72
2023-03-07T02:35:21.046Z,62.79
2023-03-07T02:38:27.810Z,62.46
2023-03-07T02:41:36.005Z,62.30
2023-03-07T02:44:45.255Z,62.60
2023-03-07T02:47:51.484Z,62.76
2023-03-07T02:50:57.760Z,62.73
2023-03-07T02:54:02.262Z,61.99
2023-03-07T02:57:09.397Z,62.77
2023-03-07T03:00:17.435Z,62.85
2023-03-07T03:03:23.780Z,62.73
2023-03-07T03:06:28.278Z,62.25
2023-03-07T03:09:34.564Z,62.09
2023-03-07T03:12:39.164Z,61.91
2023-03-07T03:15:45.464Z,61.85
2023-03-07T03:18:49.957Z,61.76
2023-03-07T03:21:56.232Z,62.17
2023-03-07T03:25:00.747Z,62.53
2023-03-07T03:28:07.443Z,62.44
2023-03-07T03:31:15.506Z,62.36
2023-03-07T03:34:21.815Z,62.12
2023-03-07T03:37:27.251Z,62.14
2023-03-07T03:40:33.565Z,62.55
2023-03-07T03:43:38.144Z,62.65
2023-03-07T03:46:44.478Z,62.92
2023-03-07T03:49:49.044Z,62.67
2023-03-07T03:52:55.300Z,62.81
2023-03-07T03:56:04.133Z,62.81
2023-03-07T03:59:10.368Z,63.42
2023-03-07T04:02:17.106Z,62.85
2023-03-07T04:05:23.691Z,62.45
2023-03-07T04:08:29.916Z,62.50
2023-03-07T04:11:36.702Z,62.86
2023-03-07T04:14:42.971Z,63.36
2023-03-07T04:17:47.892Z,63.92
2023-03-07T04:20:54.982Z,63.52
2023-03-07T04:24:01.133Z,63.03
2023-03-07T04:27:07.774Z,62.94
2023-03-07T04:30:15.255Z,63.19
2023-03-07T04:33:21.881Z,63.19
2023-03-07T04:36:28.569Z,63.50
2023-03-07T04:39:34.805Z,63.82
2023-03-07T04:42:41.103Z,64.19
2023-03-07T04:45:45.637Z,63.99
2023-03-07T04:48:51.879Z,64.17
2023-03-07T04:51:56.510Z,64.19
2023-03-07T04:55:02.798Z,64.44
2023-03-07T04:58:11.038Z,64.89
2023-03-07T05:01:17.283Z,64.92
2023-03-07T05:04:21.818Z,64.77
2023-03-07T05:07:30.035Z,65.09
2023-03-07T05:10:37.212Z,65.05
2023-03-07T05:13:43.493Z,65.20
2023-03-07T05:16:48.478Z,65.58
2023-03-07T05:19:55.843Z,65.76
2023-03-07T05:23:02.564Z,65.68
2023-03-07T05:26:08.997Z,65.42
2023-03-07T05:29:15.289Z,65.50
2023-03-07T05:32:19.857Z,65.56
2023-03-07T05:35:26.054Z,65.92
2023-03-07T05:38:32.346Z,65.29
2023-03-07T05:41:36.847Z,65.01
2023-03-07T05:44:43.190Z,65.19
2023-03-07T05:47:47.744Z,65.07
2023-03-07T05:50:53.999Z,65.05
2023-03-07T05:54:00.692Z,64.84
2023-03-07T05:57:07.273Z,64.90
2023-03-07T06:00:16.150Z,64.99
2023-03-07T06:03:22.560Z,64.92
2023-03-07T06:06:28.857Z,64.76
2023-03-07T06:09:35.130Z,64.76
2023-03-07T06:12:39.666Z,64.46
2023-03-07T06:15:45.964Z,64.47
2023-03-07T06:18:50.510Z,64.44
2023-03-07T06:21:56.805Z,64.75
2023-03-07T06:25:01.320Z,64.75
2023-03-07T06:28:07.668Z,64.64
2023-03-07T06:31:13.036Z,64.24
2023-03-07T06:34:19.953Z,64.35
2023-03-07T06:37:26.215Z,64.08
2023-03-07T06:40:30.711Z,64.09
2023-03-07T06:43:37.211Z,64.19
2023-03-07T06:46:43.616Z,63.88
2023-03-07T06:49:48.178Z,63.46
2023-03-07T06:52:54.446Z,63.52
2023-03-07T06:55:58.965Z,62.84
2023-03-07T06:59:05.237Z,62.57
2023-03-07T07:02:15.323Z,61.92
2023-03-07T07:05:21.677Z,61.43
2023-03-07T07:08:26.180Z,61.22
2023-03-07T07:11:32.922Z,61.05
2023-03-07T07:14:39.236Z,60.62
2023-03-07T07:17:44.059Z,59.91
2023-03-07T07:20:56.962Z,59.55
2023-03-07T07:24:03.335Z,57.80
2023-03-07T07:27:08.117Z,58.44
2023-03-07T07:30:15.801Z,59.30
2023-03-07T07:33:22.318Z,61.96
2023-03-07T07:36:29.184Z,62.85
2023-03-07T07:39:35.527Z,61.84
2023-03-07T07:42:40.371Z,60.81
2023-03-07T07:45:46.815Z,60.41
2023-03-07T07:48:53.093Z,59.12
2023-03-07T07:51:59.231Z,58.13
2023-03-07T07:55:05.908Z,59.28
2023-03-07T07:58:12.188Z,61.32
2023-03-07T08:01:17.887Z,61.72
2023-03-07T08:04:24.212Z,60.71
2023-03-07T08:07:29.091Z,58.87
2023-03-07T08:10:35.702Z,59.56
2023-03-07T08:13:42.116Z,57.78
2023-03-07T08:16:47.064Z,59.28
2023-03-07T08:19:53.233Z,61.10
2023-03-07T08:22:59.475Z,62.63
2023-03-07T08:26:10.916Z,61.91
2023-03-07T08:29:17.208Z,61.23
2023-03-07T08:32:23.676Z,59.09
2023-03-07T08:35:32.229Z,58.35
2023-03-07T08:38:38.794Z,57.58
2023-03-07T08:41:45.120Z,58.34
2023-03-07T08:44:49.661Z,59.30
2023-03-07T08:47:57.483Z,60.15
2023-03-07T08:51:09.605Z,62.01
2023-03-07T08:54:16.118Z,60.76
2023-03-07T08:57:22.441Z,58.48
2023-03-07T09:00:27.566Z,57.47
2023-03-07T09:03:33.934Z,58.38
2023-03-07T09:06:38.440Z,58.78
2023-03-07T09:09:45.028Z,58.18
2023-03-07T09:12:51.984Z,57.15
2023-03-07T09:15:58.266Z,58.72
2023-03-07T09:19:02.915Z,59.04
2023-03-07T09:22:09.208Z,59.60
2023-03-07T09:25:16.175Z,60.26
2023-03-07T09:28:22.404Z,59.81
2023-03-07T09:31:28.906Z,59.64
2023-03-07T09:34:35.443Z,56.02
2023-03-07T09:37:39.961Z,58.59
2023-03-07T09:40:48.951Z,58.37
2023-03-07T09:44:05.608Z,57.38
2023-03-07T09:47:29.773Z,57.73
2023-03-07T09:50:49.273Z,58.55
2023-03-07T09:54:01.484Z,58.47
2023-03-07T09:57:17.372Z,58.80
2023-03-07T10:00:29.398Z,58.84
2023-03-07T10:03:43.261Z,58.86
2023-03-07T10:06:57.974Z,58.54
2023-03-07T10:10:07.867Z,58.22
2023-03-07T10:13:26.595Z,58.24
2023-03-07T10:16:42.736Z,57.94
2023-03-07T10:19:52.421Z,58.32
2023-03-07T10:23:07.660Z,58.01
2023-03-07T10:26:19.397Z,57.38
2023-03-07T10:29:31.207Z,56.09
2023-03-07T10:32:42.137Z,55.86
2023-03-07T10:35:55.658Z,56.68
2023-03-07T10:39:07.922Z,56.49
2023-03-07T10:42:16.783Z,55.28
2023-03-07T10:45:23.622Z,56.50
2023-03-07T10:48:31.461Z,56.35
2023-03-07T10:51:51.708Z,55.66
2023-03-07T10:55:18.164Z,54.39
2023-03-07T10:58:26.993Z,54.47
2023-03-07T11:01:33.947Z,54.24
2023-03-07T11:04:48.727Z,53.76
2023-03-07T11:07:55.159Z,52.08
2023-03-07T11:11:00.034Z,54.14
2023-03-07T11:14:14.766Z,54.59
2023-03-07T11:17:24.331Z,53.65
2023-03-07T11:20:48.016Z,53.41
2023-03-07T11:24:02.105Z,54.35
2023-03-07T11:27:21.333Z,53.87
2023-03-07T11:30:34.744Z,54.21
2023-03-07T11:34:00.010Z,54.32
2023-03-07T11:37:31.172Z,54.37
2023-03-07T11:40:44.412Z,53.28
2023-03-07T11:43:59.874Z,53.91
2023-03-07T11:47:39.391Z,54.17
2023-03-07T11:50:50.766Z,54.57
2023-03-07T11:54:12.811Z,54.36
2023-03-07T11:57:27.775Z,54.21
2023-03-07T12:00:39.020Z,54.15
2023-03-07T12:04:12.046Z,54.17
2023-03-07T12:07:42.904Z,53.98
2023-03-07T12:11:00.386Z,54.46
2023-03-07T12:14:18.624Z,54.55
2023-03-07T12:17:37.742Z,53.80
2023-03-07T12:20:55.559Z,53.97
2023-03-07T12:24:04.764Z,53.93
2023-03-07T12:27:19.180Z,54.30
2023-03-07T12:30:36.303Z,53.70
2023-03-07T12:33:53.790Z,54.19
2023-03-07T12:37:04.401Z,54.21
2023-03-07T12:40:21.729Z,54.17
2023-03-07T12:43:35.242Z,54.29
2023-03-07T12:46:48.836Z,53.66
2023-03-07T12:50:01.001Z,53.43
2023-03-07T12:53:12.601Z,52.80
2023-03-07T12:56:23.516Z,53.06
2023-03-07T12:59:30.454Z,52.31
2023-03-07T13:02:41.889Z,52.79
2023-03-07T13:05:49.156Z,52.10
2023-03-07T13:08:59.899Z,51.83
2023-03-07T13:12:31.293Z,52.25
2023-03-07T13:16:06.882Z,51.93
2023-03-07T13:19:52.390Z,51.84
2023-03-07T13:23:01.346Z,51.83
2023-03-07T13:26:13.302Z,52.39
2023-03-07T13:29:39.652Z,52.27
2023-03-07T13:33:03.401Z,52.60
2023-03-07T13:36:38.023Z,52.41
2023-03-07T13:40:06.472Z,52.47
2023-03-07T13:43:56.803Z,52.63
2023-03-07T13:47:05.004Z,52.56
2023-03-07T13:50:40.495Z,52.37
2023-03-07T13:53:50.186Z,52.88
2023-03-07T13:56:56.531Z,52.87
2023-03-07T14:00:04.683Z,52.10
2023-03-07T14:03:29.458Z,51.62
2023-03-07T14:06:39.004Z,51.63
2023-03-07T14:09:48.817Z,52.28
2023-03-07T14:13:21.472Z,52.16
2023-03-07T14:16:49.080Z,52.21
2023-03-07T14:20:09.246Z,52.44
2023-03-07T14:23:30.015Z,52.21
2023-03-07T14:26:39.863Z,52.63
2023-03-07T14:29:54.115Z,52.25
2023-03-07T14:33:00.983Z,52.50
2023-03-07T14:36:20.070Z,51.99
2023-03-07T14:39:29.985Z,52.37
2023-03-07T14:42:44.751Z,52.10
2023-03-07T14:45:59.872Z,52.34
2023-03-07T14:49:18.783Z,52.31
2023-03-07T14:52:31.349Z,52.59
2023-03-07T14:55:42.711Z,52.49
2023-03-07T14:58:53.792Z,52.32
2023-03-07T15:02:00.838Z,52.11
2023-03-07T15:05:15.471Z,52.65
2023-03-07T15:08:24.244Z,52.59
2023-03-07T15:11:36.213Z,51.73
2023-03-07T15:14:48.839Z,51.86
2023-03-07T15:17:57.417Z,52.15
2023-03-07T15:21:05.480Z,52.38
2023-03-07T15:24:22.846Z,52.33
2023-03-07T15:27:31.863Z,52.07
2023-03-07T15:30:39.503Z,52.17
2023-03-07T15:33:45.924Z,52.20
2023-03-07T15:36:50.415Z,51.56
2023-03-07T15:40:01.576Z,51.93
2023-03-07T15:43:25.994Z,52.01
2023-03-07T15:46:34.234Z,52.32
2023-03-07T15:49:46.078Z,52.70
2023-03-07T15:52:56.130Z,52.33
2023-03-07T15:56:05.184Z,52.68
2023-03-07T15:59:29.387Z,52.86
2023-03-07T16:02:45.434Z,53.28
2023-03-07T16:05:50.375Z,53.18
2023-03-07T16:08:56.676Z,53.41
2023-03-07T16:12:01.414Z,53.73
2023-03-07T16:15:14.688Z,53.94
2023-03-07T16:18:29.165Z,54.09
2023-03-07T16:21:35.349Z,54.42
2023-03-07T16:24:41.665Z,54.65
2023-03-07T16:27:48.356Z,54.77
2023-03-07T16:30:54.589Z,54.80
2023-03-07T16:34:01.466Z,55.12
2023-03-07T16:37:08.441Z,55.44
2023-03-07T16:40:17.243Z,55.81
2023-03-07T16:43:34.794Z,55.88
2023-03-07T16:46:43.055Z,55.77
2023-03-07T16:49:53.107Z,56.11
2023-03-07T16:52:59.523Z,56.68
2023-03-07T16:56:04.171Z,56.66
2023-03-07T16:59:14.730Z,56.44
2023-03-07T17:02:22.405Z,57.26
2023-03-07T17:05:30.593Z,57.34
2023-03-07T17:08:36.925Z,57.36
2023-03-07T17:11:42.686Z,57.61
2023-03-07T17:14:49.445Z,57.32
2023-03-07T17:17:56.201Z,57.84
2023-03-07T17:21:02.489Z,58.00
2023-03-07T17:24:09.534Z,58.35
2023-03-07T17:27:15.873Z,58.50
2023-03-07T17:30:22.617Z,58.76
2023-03-07T17:33:28.953Z,58.53
2023-03-07T17:36:33.568Z,58.75
2023-03-07T17:39:40.824Z,58.42
2023-03-07T17:42:49.321Z,58.96
2023-03-07T17:45:55.600Z,59.32
2023-03-07T17:49:01.863Z,59.61
2023-03-07T17:52:09.762Z,59.84
2023-03-07T17:55:18.061Z,60.13
2023-03-07T17:58:24.231Z,60.00
2023-03-07T18:01:31.130Z,60.00
2023-03-07T18:04:37.424Z,60.21
2023-03-07T18:07:43.903Z,60.65
2023-03-07T18:10:50.011Z,60.45
2023-03-07T18:13:56.792Z,60.53
2023-03-07T18:17:03.413Z,60.44
2023-03-07T18:20:13.262Z,60.36
2023-03-07T18:23:19.449Z,60.32
2023-03-07T18:26:26.025Z,60.18
2023-03-07T18:29:33.086Z,60.19
2023-03-07T18:32:39.433Z,60.08
2023-03-07T18:35:44.074Z,60.09
2023-03-07T18:38:50.950Z,59.99
2023-03-07T18:41:57.353Z,59.99
2023-03-07T18:45:02.018Z,60.00
2023-03-07T18:48:08.688Z,59.88
2023-03-07T18:51:17.806Z,59.96
2023-03-07T18:54:24.084Z,60.14
2023-03-07T18:57:30.366Z,60.02
2023-03-07T19:00:35.051Z,60.07
2023-03-07T19:03:41.691Z,60.04
2023-03-07T19:06:48.698Z,60.11
2023-03-07T19:09:55.118Z,60.26
2023-03-07T19:13:01.275Z,60.21
2023-03-07T19:16:10.417Z,60.23
2023-03-07T19:19:16.780Z,60.27
2023-03-07T19:22:26.432Z,60.36
2023-03-07T19:25:35.382Z,60.33
2023-03-07T19:28:42.072Z,60.32
2023-03-07T19:31:48.463Z,60.36
2023-03-07T19:38:23.555Z,60.34
2023-03-07T19:41:31.453Z,60.37
2023-03-07T19:44:37.767Z,60.31
2023-03-07T19:47:42.247Z,60.30
2023-03-07T19:50:48.519Z,60.21
2023-03-07T19:53:57.458Z,60.24
2023-03-07T19:57:04.020Z,60.23
2023-03-07T20:00:13.764Z,60.12
2023-03-07T20:03:21.174Z,60.21
2023-03-07T20:06:29.650Z,60.14
2023-03-07T20:09:35.932Z,60.13
2023-03-07T20:12:42.264Z,60.00
2023-03-07T20:15:51.738Z,60.04
2023-03-07T20:18:59.693Z,60.09
2023-03-07T20:22:06.850Z,60.09
2023-03-07T20:25:14.576Z,60.08
2023-03-07T20:28:20.863Z,60.10
2023-03-07T20:31:28.045Z,60.03
2023-03-07T20:34:35.451Z,60.08
2023-03-07T20:37:41.863Z,60.10
2023-03-07T20:40:46.381Z,60.05
2023-03-07T20:43:53.881Z,60.10
2023-03-07T20:47:00.175Z,60.08
2023-03-07T20:50:07.167Z,60.06
2023-03-07T20:53:13.515Z,59.99
2023-03-07T20:56:18.557Z,60.07
2023-03-07T20:59:24.883Z,60.08
2023-03-07T21:02:29.443Z,60.12
2023-03-07T21:05:35.915Z,60.07
2023-03-07T21:08:42.306Z,60.19
2023-03-07T21:11:47.579Z,60.22
2023-03-07T21:14:53.796Z,60.19
2023-03-07T21:18:00.360Z,60.24
2023-03-07T21:21:08.743Z,60.38
2023-03-07T21:24:15.719Z,60.47
2023-03-07T21:27:22.216Z,60.57
2023-03-07T21:30:28.548Z,60.66
2023-03-07T21:33:33.946Z,60.76
2023-03-07T21:36:41.097Z,60.68
2023-03-07T21:39:47.355Z,60.86
2023-03-07T21:42:53.644Z,61.17
2023-03-07T21:45:58.217Z,61.34
2023-03-07T21:49:04.629Z,61.18
2023-03-07T21:52:09.182Z,61.45
2023-03-07T21:55:16.518Z,61.29
2023-03-07T21:58:23.085Z,61.57
2023-03-07T22:01:30.763Z,61.76
2023-03-07T22:04:37.177Z,61.83
2023-03-07T22:07:43.629Z,62.08
2023-03-07T22:10:56.893Z,62.04
2023-03-07T22:14:03.396Z,61.98
2023-03-07T22:17:10.055Z,62.22
2023-03-07T22:20:16.735Z,62.24
2023-03-07T22:23:23.257Z,62.94
2023-03-07T22:26:30.708Z,63.21
2023-03-07T22:29:37.080Z,62.23
2023-03-07T22:32:41.662Z,61.42
2023-03-07T22:35:55.996Z,59.10
2023-03-07T22:39:02.382Z,58.44
2023-03-07T22:42:09.516Z,59.00
2023-03-07T22:45:17.339Z,59.60
2023-03-07T22:48:23.732Z,60.25
2023-03-07T22:51:28.514Z,60.37
2023-03-07T22:54:39.303Z,60.77
2023-03-07T22:57:45.657Z,60.97
2023-03-07T23:00:50.272Z,61.22
2023-03-07T23:03:57.856Z,61.23
2023-03-07T23:07:04.233Z,61.76
2023-03-07T23:10:09.358Z,61.93
2023-03-07T23:13:17.193Z,61.91
2023-03-07T23:16:25.889Z,62.13
2023-03-07T23:19:32.348Z,62.97
2023-03-07T23:22:40.841Z,64.15
2023-03-07T23:25:47.376Z,63.57
2023-03-07T23:28:53.728Z,62.52
2023-03-07T23:31:58.623Z,60.59
2023-03-07T23:35:05.550Z,59.50
2023-03-07T23:38:14.385Z,59.66
2023-03-07T23:41:21.609Z,60.30
2023-03-07T23:44:28.000Z,60.97
2023-03-07T23:47:32.661Z,61.09
2023-03-07T23:50:39.004Z,60.98
2023-03-07T23:53:44.070Z,61.81
2023-03-07T23:56:50.395Z,61.45
2023-03-07T23:59:55.183Z,63.11
